Antonino, Kansas
Current Conditions -  °F | °C
As of 2:35 AM on Monday 26 Jan 2015 (Local Time) from KHYS Reporting Station
Clear Clear  
Wind Chill: -4°   Ceiling: Unl
Heat Index: -1°   Visibility: 10mi
Dew Point: -8°   Wind: 6mph
Humidity: 60%   Direction: 230°SW
Pressure: 30.07"   Gusts: NA
Location:  38.8338°N, 99.3297°W
Report Text: KHYS 260835Z AUTO 23005KT 10SM CLR M01/M08 A3007 RMK AO1
Loading
Personal Weather Stations






























Interactive Weather Map New forecast layout! Learn more

10-Day Weather Forecast

Advertisements
Track Severe Weather on mobile